sensor_id;sensor_type;location;lat;lon;timestamp;P1;durP1;ratioP1;P2;durP2;ratioP2
56102;SDS011;41970;48.774;9.280;2022-08-19T00:00:26;13.50;;;12.40;;
56102;SDS011;41970;48.774;9.280;2022-08-19T00:02:53;12.73;;;11.63;;
56102;SDS011;41970;48.774;9.280;2022-08-19T00:05:19;13.23;;;12.00;;
56102;SDS011;41970;48.774;9.280;2022-08-19T00:07:46;13.67;;;12.57;;
56102;SDS011;41970;48.774;9.280;2022-08-19T00:10:14;13.90;;;12.73;;
56102;SDS011;41970;48.774;9.280;2022-08-19T00:12:40;13.00;;;11.80;;
56102;SDS011;41970;48.774;9.280;2022-08-19T00:15:08;13.80;;;12.50;;
56102;SDS011;41970;48.774;9.280;2022-08-19T00:17:38;13.87;;;12.70;;
56102;SDS011;41970;48.774;9.280;2022-08-19T00:20:06;13.33;;;11.90;;
56102;SDS011;41970;48.774;9.280;2022-08-19T00:22:33;13.83;;;12.63;;
56102;SDS011;41970;48.774;9.280;2022-08-19T00:24:59;13.57;;;12.17;;
56102;SDS011;41970;48.774;9.280;2022-08-19T00:27:25;15.00;;;13.60;;
56102;SDS011;41970;48.774;9.280;2022-08-19T00:29:51;14.40;;;13.10;;
56102;SDS011;41970;48.774;9.280;2022-08-19T00:32:17;14.00;;;12.87;;
56102;SDS011;41970;48.774;9.280;2022-08-19T00:34:43;14.50;;;13.10;;
56102;SDS011;41970;48.774;9.280;2022-08-19T00:37:08;13.73;;;12.43;;
56102;SDS011;41970;48.774;9.280;2022-08-19T00:39:34;15.47;;;14.07;;
56102;SDS011;41970;48.774;9.280;2022-08-19T00:42:01;13.87;;;12.57;;
56102;SDS011;41970;48.774;9.280;2022-08-19T00:44:27;14.93;;;13.63;;
56102;SDS011;41970;48.774;9.280;2022-08-19T00:46:56;14.60;;;12.63;;
56102;SDS011;41970;48.774;9.280;2022-08-19T00:52:09;13.70;;;12.40;;
56102;SDS011;41970;48.774;9.280;2022-08-19T00:54:39;14.53;;;13.10;;
56102;SDS011;41970;48.774;9.280;2022-08-19T00:57:07;14.03;;;12.83;;
56102;SDS011;41970;48.774;9.280;2022-08-19T00:59:37;13.73;;;12.60;;
56102;SDS011;41970;48.774;9.280;2022-08-19T01:02:05;15.80;;;14.30;;
56102;SDS011;41970;48.774;9.280;2022-08-19T01:04:31;14.47;;;13.17;;
56102;SDS011;41970;48.774;9.280;2022-08-19T01:06:57;14.30;;;12.90;;
56102;SDS011;41970;48.774;9.280;2022-08-19T01:09:24;13.53;;;12.23;;
56102;SDS011;41970;48.774;9.280;2022-08-19T01:11:50;14.63;;;13.23;;
56102;SDS011;41970;48.774;9.280;2022-08-19T01:14:17;13.63;;;12.33;;
56102;SDS011;41970;48.774;9.280;2022-08-19T01:16:43;14.77;;;13.47;;
56102;SDS011;41970;48.774;9.280;2022-08-19T01:22:08;14.10;;;12.80;;
56102;SDS011;41970;48.774;9.280;2022-08-19T01:24:40;14.33;;;12.97;;
56102;SDS011;41970;48.774;9.280;2022-08-19T01:27:06;14.40;;;13.10;;
56102;SDS011;41970;48.774;9.280;2022-08-19T01:29:33;14.70;;;13.40;;
56102;SDS011;41970;48.774;9.280;2022-08-19T01:32:01;14.53;;;13.20;;
56102;SDS011;41970;48.774;9.280;2022-08-19T01:34:28;13.17;;;11.97;;
56102;SDS011;41970;48.774;9.280;2022-08-19T01:36:54;14.97;;;13.37;;
56102;SDS011;41970;48.774;9.280;2022-08-19T01:39:21;15.00;;;13.60;;
56102;SDS011;41970;48.774;9.280;2022-08-19T01:41:49;14.27;;;12.90;;
56102;SDS011;41970;48.774;9.280;2022-08-19T01:44:19;15.00;;;13.60;;
56102;SDS011;41970;48.774;9.280;2022-08-19T01:46:49;16.20;;;14.90;;
56102;SDS011;41970;48.774;9.280;2022-08-19T01:49:17;15.60;;;14.13;;
56102;SDS011;41970;48.774;9.280;2022-08-19T01:51:45;14.30;;;13.00;;
56102;SDS011;41970;48.774;9.280;2022-08-19T01:54:12;14.50;;;13.13;;
56102;SDS011;41970;48.774;9.280;2022-08-19T01:56:40;15.20;;;13.60;;
56102;SDS011;41970;48.774;9.280;2022-08-19T01:59:08;13.83;;;12.63;;
56102;SDS011;41970;48.774;9.280;2022-08-19T02:01:37;15.70;;;14.07;;
56102;SDS011;41970;48.774;9.280;2022-08-19T02:04:03;16.37;;;14.60;;
56102;SDS011;41970;48.774;9.280;2022-08-19T02:06:30;14.23;;;12.93;;
56102;SDS011;41970;48.774;9.280;2022-08-19T02:08:56;16.93;;;15.13;;
56102;SDS011;41970;48.774;9.280;2022-08-19T02:11:33;13.83;;;12.40;;
56102;SDS011;41970;48.774;9.280;2022-08-19T02:14:01;15.17;;;13.60;;
56102;SDS011;41970;48.774;9.280;2022-08-19T02:16:29;15.93;;;14.33;;
56102;SDS011;41970;48.774;9.280;2022-08-19T02:18:56;16.17;;;14.63;;
56102;SDS011;41970;48.774;9.280;2022-08-19T02:21:22;16.63;;;15.03;;
56102;SDS011;41970;48.774;9.280;2022-08-19T02:23:49;15.27;;;13.83;;
56102;SDS011;41970;48.774;9.280;2022-08-19T02:26:16;16.37;;;14.80;;
56102;SDS011;41970;48.774;9.280;2022-08-19T02:28:43;16.43;;;14.90;;
56102;SDS011;41970;48.774;9.280;2022-08-19T02:31:10;16.13;;;14.63;;
56102;SDS011;41970;48.774;9.280;2022-08-19T02:33:37;17.67;;;15.00;;
56102;SDS011;41970;48.774;9.280;2022-08-19T02:36:04;17.27;;;15.67;;
56102;SDS011;41970;48.774;9.280;2022-08-19T02:38:31;17.97;;;15.67;;
56102;SDS011;41970;48.774;9.280;2022-08-19T02:40:59;18.83;;;16.83;;
56102;SDS011;41970;48.774;9.280;2022-08-19T02:43:28;18.27;;;16.57;;
56102;SDS011;41970;48.774;9.280;2022-08-19T02:45:55;19.53;;;17.53;;
56102;SDS011;41970;48.774;9.280;2022-08-19T02:48:22;17.33;;;15.53;;
56102;SDS011;41970;48.774;9.280;2022-08-19T02:50:49;18.57;;;16.83;;
56102;SDS011;41970;48.774;9.280;2022-08-19T02:53:24;18.70;;;17.00;;
56102;SDS011;41970;48.774;9.280;2022-08-19T02:55:52;18.83;;;16.93;;
56102;SDS011;41970;48.774;9.280;2022-08-19T02:58:19;18.03;;;16.20;;
56102;SDS011;41970;48.774;9.280;2022-08-19T03:00:48;17.00;;;15.30;;
56102;SDS011;41970;48.774;9.280;2022-08-19T03:03:16;18.20;;;16.53;;
56102;SDS011;41970;48.774;9.280;2022-08-19T03:05:42;19.67;;;17.63;;
56102;SDS011;41970;48.774;9.280;2022-08-19T03:08:08;18.93;;;16.93;;
56102;SDS011;41970;48.774;9.280;2022-08-19T03:10:46;19.10;;;17.03;;
56102;SDS011;41970;48.774;9.280;2022-08-19T03:13:13;18.87;;;16.97;;
56102;SDS011;41970;48.774;9.280;2022-08-19T03:15:41;18.63;;;16.83;;
56102;SDS011;41970;48.774;9.280;2022-08-19T03:18:09;19.17;;;17.37;;
56102;SDS011;41970;48.774;9.280;2022-08-19T03:20:39;21.13;;;18.93;;
56102;SDS011;41970;48.774;9.280;2022-08-19T03:23:10;19.97;;;17.83;;
56102;SDS011;41970;48.774;9.280;2022-08-19T03:25:41;20.30;;;18.10;;
56102;SDS011;41970;48.774;9.280;2022-08-19T03:28:10;18.63;;;16.53;;
56102;SDS011;41970;48.774;9.280;2022-08-19T03:30:37;20.30;;;18.30;;
56102;SDS011;41970;48.774;9.280;2022-08-19T03:33:05;19.03;;;17.10;;
56102;SDS011;41970;48.774;9.280;2022-08-19T03:35:32;18.77;;;16.83;;
56102;SDS011;41970;48.774;9.280;2022-08-19T03:38:02;19.70;;;17.63;;
56102;SDS011;41970;48.774;9.280;2022-08-19T03:40:29;21.10;;;19.10;;
56102;SDS011;41970;48.774;9.280;2022-08-19T03:43:00;20.50;;;18.47;;
56102;SDS011;41970;48.774;9.280;2022-08-19T03:45:26;21.10;;;19.00;;
56102;SDS011;41970;48.774;9.280;2022-08-19T03:47:52;20.67;;;18.70;;
56102;SDS011;41970;48.774;9.280;2022-08-19T03:50:18;19.90;;;18.03;;
56102;SDS011;41970;48.774;9.280;2022-08-19T03:52:48;19.77;;;17.77;;
56102;SDS011;41970;48.774;9.280;2022-08-19T03:55:16;23.20;;;19.27;;
56102;SDS011;41970;48.774;9.280;2022-08-19T03:57:42;20.17;;;18.03;;
56102;SDS011;41970;48.774;9.280;2022-08-19T04:00:10;19.97;;;18.03;;
56102;SDS011;41970;48.774;9.280;2022-08-19T04:02:37;20.07;;;18.07;;
56102;SDS011;41970;48.774;9.280;2022-08-19T04:05:02;22.30;;;20.20;;
56102;SDS011;41970;48.774;9.280;2022-08-19T04:07:29;22.53;;;20.43;;
56102;SDS011;41970;48.774;9.280;2022-08-19T04:09:55;21.83;;;19.70;;
56102;SDS011;41970;48.774;9.280;2022-08-19T04:12:21;22.33;;;20.07;;
56102;SDS011;41970;48.774;9.280;2022-08-19T04:14:47;22.30;;;20.03;;
56102;SDS011;41970;48.774;9.280;2022-08-19T04:17:12;22.03;;;19.80;;
56102;SDS011;41970;48.774;9.280;2022-08-19T04:19:39;21.10;;;19.10;;
56102;SDS011;41970;48.774;9.280;2022-08-19T04:22:08;21.80;;;19.57;;
56102;SDS011;41970;48.774;9.280;2022-08-19T04:24:35;20.97;;;19.07;;
56102;SDS011;41970;48.774;9.280;2022-08-19T04:27:01;20.70;;;18.60;;
56102;SDS011;41970;48.774;9.280;2022-08-19T04:29:28;22.03;;;19.60;;
56102;SDS011;41970;48.774;9.280;2022-08-19T04:31:55;22.77;;;20.50;;
56102;SDS011;41970;48.774;9.280;2022-08-19T04:34:23;21.93;;;19.77;;
56102;SDS011;41970;48.774;9.280;2022-08-19T04:36:51;20.07;;;18.17;;
56102;SDS011;41970;48.774;9.280;2022-08-19T04:39:20;21.70;;;19.60;;
56102;SDS011;41970;48.774;9.280;2022-08-19T04:41:48;23.67;;;21.33;;
56102;SDS011;41970;48.774;9.280;2022-08-19T04:44:33;21.13;;;19.03;;
56102;SDS011;41970;48.774;9.280;2022-08-19T04:47:00;22.60;;;20.40;;
56102;SDS011;41970;48.774;9.280;2022-08-19T04:49:30;19.00;;;17.30;;
56102;SDS011;41970;48.774;9.280;2022-08-19T04:51:56;22.60;;;20.43;;
56102;SDS011;41970;48.774;9.280;2022-08-19T04:54:23;21.53;;;19.43;;
56102;SDS011;41970;48.774;9.280;2022-08-19T04:56:50;21.50;;;19.30;;
56102;SDS011;41970;48.774;9.280;2022-08-19T04:59:17;21.17;;;19.00;;
56102;SDS011;41970;48.774;9.280;2022-08-19T05:01:45;22.00;;;19.57;;
56102;SDS011;41970;48.774;9.280;2022-08-19T05:04:15;23.60;;;21.30;;
56102;SDS011;41970;48.774;9.280;2022-08-19T05:06:48;22.90;;;20.63;;
56102;SDS011;41970;48.774;9.280;2022-08-19T05:09:14;21.10;;;19.20;;
56102;SDS011;41970;48.774;9.280;2022-08-19T05:11:41;23.60;;;21.20;;
56102;SDS011;41970;48.774;9.280;2022-08-19T05:14:07;21.97;;;19.87;;
56102;SDS011;41970;48.774;9.280;2022-08-19T05:16:34;22.50;;;20.30;;
56102;SDS011;41970;48.774;9.280;2022-08-19T05:19:00;24.40;;;22.13;;
56102;SDS011;41970;48.774;9.280;2022-08-19T05:21:45;24.77;;;22.37;;
56102;SDS011;41970;48.774;9.280;2022-08-19T05:24:30;23.37;;;21.03;;
56102;SDS011;41970;48.774;9.280;2022-08-19T05:27:00;22.93;;;20.70;;
56102;SDS011;41970;48.774;9.280;2022-08-19T05:29:27;23.33;;;20.83;;
56102;SDS011;41970;48.774;9.280;2022-08-19T05:31:54;23.50;;;21.20;;
56102;SDS011;41970;48.774;9.280;2022-08-19T05:34:21;22.90;;;20.60;;
56102;SDS011;41970;48.774;9.280;2022-08-19T05:36:51;22.80;;;20.70;;
56102;SDS011;41970;48.774;9.280;2022-08-19T05:39:23;23.57;;;21.17;;
56102;SDS011;41970;48.774;9.280;2022-08-19T05:41:53;21.90;;;19.70;;
56102;SDS011;41970;48.774;9.280;2022-08-19T05:44:25;23.43;;;21.00;;
56102;SDS011;41970;48.774;9.280;2022-08-19T05:46:56;23.10;;;20.87;;
56102;SDS011;41970;48.774;9.280;2022-08-19T05:49:24;23.63;;;21.20;;
56102;SDS011;41970;48.774;9.280;2022-08-19T05:51:52;23.23;;;21.10;;
56102;SDS011;41970;48.774;9.280;2022-08-19T05:54:20;20.90;;;18.80;;
56102;SDS011;41970;48.774;9.280;2022-08-19T05:56:48;23.30;;;21.07;;
56102;SDS011;41970;48.774;9.280;2022-08-19T05:59:17;24.27;;;21.97;;
56102;SDS011;41970;48.774;9.280;2022-08-19T06:01:46;25.30;;;22.73;;
56102;SDS011;41970;48.774;9.280;2022-08-19T06:04:15;22.13;;;19.87;;
56102;SDS011;41970;48.774;9.280;2022-08-19T06:06:44;25.47;;;22.70;;
56102;SDS011;41970;48.774;9.280;2022-08-19T06:09:11;23.97;;;21.30;;
56102;SDS011;41970;48.774;9.280;2022-08-19T06:14:13;26.50;;;23.80;;
56102;SDS011;41970;48.774;9.280;2022-08-19T06:16:44;24.50;;;22.20;;
56102;SDS011;41970;48.774;9.280;2022-08-19T06:19:12;24.03;;;21.70;;
56102;SDS011;41970;48.774;9.280;2022-08-19T06:21:42;23.30;;;20.50;;
56102;SDS011;41970;48.774;9.280;2022-08-19T06:24:10;25.33;;;22.70;;
56102;SDS011;41970;48.774;9.280;2022-08-19T06:26:39;26.70;;;24.20;;
56102;SDS011;41970;48.774;9.280;2022-08-19T06:29:07;25.27;;;22.80;;
56102;SDS011;41970;48.774;9.280;2022-08-19T06:31:34;26.17;;;23.63;;
56102;SDS011;41970;48.774;9.280;2022-08-19T06:34:03;24.60;;;22.40;;
56102;SDS011;41970;48.774;9.280;2022-08-19T06:36:31;25.53;;;22.97;;
56102;SDS011;41970;48.774;9.280;2022-08-19T06:39:03;25.20;;;22.60;;
56102;SDS011;41970;48.774;9.280;2022-08-19T06:41:32;25.30;;;22.57;;
56102;SDS011;41970;48.774;9.280;2022-08-19T06:44:01;26.43;;;23.83;;
56102;SDS011;41970;48.774;9.280;2022-08-19T06:46:27;25.73;;;23.23;;
56102;SDS011;41970;48.774;9.280;2022-08-19T06:48:53;29.90;;;22.70;;
56102;SDS011;41970;48.774;9.280;2022-08-19T06:51:20;25.17;;;22.57;;
56102;SDS011;41970;48.774;9.280;2022-08-19T06:53:47;26.47;;;22.17;;
56102;SDS011;41970;48.774;9.280;2022-08-19T06:56:16;24.40;;;22.10;;
56102;SDS011;41970;48.774;9.280;2022-08-19T06:58:43;26.10;;;23.60;;
56102;SDS011;41970;48.774;9.280;2022-08-19T07:01:09;26.53;;;24.00;;
56102;SDS011;41970;48.774;9.280;2022-08-19T07:03:36;26.57;;;24.03;;
56102;SDS011;41970;48.774;9.280;2022-08-19T07:06:07;23.80;;;21.30;;
56102;SDS011;41970;48.774;9.280;2022-08-19T07:08:35;24.90;;;22.47;;
56102;SDS011;41970;48.774;9.280;2022-08-19T07:11:06;25.17;;;22.67;;
56102;SDS011;41970;48.774;9.280;2022-08-19T07:13:34;21.47;;;19.30;;
56102;SDS011;41970;48.774;9.280;2022-08-19T07:16:03;26.93;;;24.20;;
56102;SDS011;41970;48.774;9.280;2022-08-19T07:18:30;25.90;;;23.37;;
56102;SDS011;41970;48.774;9.280;2022-08-19T07:21:06;26.37;;;23.77;;
56102;SDS011;41970;48.774;9.280;2022-08-19T07:23:34;26.77;;;23.90;;
56102;SDS011;41970;48.774;9.280;2022-08-19T07:26:06;26.63;;;24.23;;
56102;SDS011;41970;48.774;9.280;2022-08-19T07:28:34;27.53;;;24.70;;
56102;SDS011;41970;48.774;9.280;2022-08-19T07:31:05;25.03;;;22.53;;
56102;SDS011;41970;48.774;9.280;2022-08-19T07:33:38;22.83;;;20.63;;
56102;SDS011;41970;48.774;9.280;2022-08-19T07:36:06;26.00;;;23.30;;
56102;SDS011;41970;48.774;9.280;2022-08-19T07:38:36;23.73;;;21.40;;
56102;SDS011;41970;48.774;9.280;2022-08-19T07:41:04;25.73;;;23.13;;
56102;SDS011;41970;48.774;9.280;2022-08-19T07:43:31;25.77;;;23.17;;
56102;SDS011;41970;48.774;9.280;2022-08-19T07:45:57;22.87;;;20.57;;
56102;SDS011;41970;48.774;9.280;2022-08-19T07:48:23;25.17;;;22.57;;
56102;SDS011;41970;48.774;9.280;2022-08-19T07:50:54;25.10;;;22.60;;
56102;SDS011;41970;48.774;9.280;2022-08-19T07:53:22;25.83;;;23.23;;
56102;SDS011;41970;48.774;9.280;2022-08-19T07:55:49;25.90;;;23.33;;
56102;SDS011;41970;48.774;9.280;2022-08-19T07:58:16;25.00;;;22.40;;
56102;SDS011;41970;48.774;9.280;2022-08-19T08:00:44;24.73;;;22.27;;
56102;SDS011;41970;48.774;9.280;2022-08-19T08:03:12;22.13;;;19.93;;
56102;SDS011;41970;48.774;9.280;2022-08-19T08:05:40;24.87;;;22.20;;
56102;SDS011;41970;48.774;9.280;2022-08-19T08:08:24;23.60;;;21.30;;
56102;SDS011;41970;48.774;9.280;2022-08-19T08:11:17;24.20;;;21.90;;
56102;SDS011;41970;48.774;9.280;2022-08-19T08:13:45;23.73;;;21.33;;
56102;SDS011;41970;48.774;9.280;2022-08-19T08:16:11;24.37;;;21.60;;
56102;SDS011;41970;48.774;9.280;2022-08-19T08:18:37;26.23;;;23.73;;
56102;SDS011;41970;48.774;9.280;2022-08-19T08:21:06;23.70;;;21.27;;
56102;SDS011;41970;48.774;9.280;2022-08-19T08:23:33;22.37;;;20.10;;
56102;SDS011;41970;48.774;9.280;2022-08-19T08:26:00;25.20;;;22.63;;
56102;SDS011;41970;48.774;9.280;2022-08-19T08:28:27;23.20;;;21.00;;
56102;SDS011;41970;48.774;9.280;2022-08-19T08:30:53;24.37;;;21.70;;
56102;SDS011;41970;48.774;9.280;2022-08-19T08:33:22;24.50;;;21.10;;
56102;SDS011;41970;48.774;9.280;2022-08-19T08:35:49;23.13;;;20.73;;
56102;SDS011;41970;48.774;9.280;2022-08-19T08:38:15;23.67;;;21.30;;
56102;SDS011;41970;48.774;9.280;2022-08-19T08:45:59;22.70;;;20.13;;
56102;SDS011;41970;48.774;9.280;2022-08-19T08:48:32;21.97;;;19.90;;
56102;SDS011;41970;48.774;9.280;2022-08-19T08:51:32;23.20;;;20.90;;
56102;SDS011;41970;48.774;9.280;2022-08-19T08:54:14;23.03;;;20.73;;
56102;SDS011;41970;48.774;9.280;2022-08-19T08:56:43;22.93;;;20.77;;
56102;SDS011;41970;48.774;9.280;2022-08-19T08:59:21;23.13;;;20.80;;
56102;SDS011;41970;48.774;9.280;2022-08-19T09:01:49;22.20;;;20.00;;
56102;SDS011;41970;48.774;9.280;2022-08-19T09:04:17;24.10;;;21.90;;
56102;SDS011;41970;48.774;9.280;2022-08-19T09:07:27;21.47;;;19.30;;
56102;SDS011;41970;48.774;9.280;2022-08-19T09:09:48;22.40;;;20.27;;
56102;SDS011;41970;48.774;9.280;2022-08-19T09:14:48;26.00;;;21.63;;
56102;SDS011;41970;48.774;9.280;2022-08-19T09:17:22;21.63;;;19.47;;
56102;SDS011;41970;48.774;9.280;2022-08-19T09:20:08;23.47;;;21.00;;
56102;SDS011;41970;48.774;9.280;2022-08-19T09:22:47;21.90;;;19.77;;
56102;SDS011;41970;48.774;9.280;2022-08-19T09:25:15;21.70;;;19.50;;
56102;SDS011;41970;48.774;9.280;2022-08-19T09:27:45;22.93;;;20.63;;
56102;SDS011;41970;48.774;9.280;2022-08-19T09:30:16;20.40;;;18.27;;
56102;SDS011;41970;48.774;9.280;2022-08-19T09:32:46;22.93;;;20.83;;
56102;SDS011;41970;48.774;9.280;2022-08-19T09:35:12;20.23;;;18.30;;
56102;SDS011;41970;48.774;9.280;2022-08-19T09:37:39;22.37;;;20.30;;
56102;SDS011;41970;48.774;9.280;2022-08-19T09:40:05;21.47;;;19.13;;
56102;SDS011;41970;48.774;9.280;2022-08-19T09:42:32;23.13;;;20.83;;
56102;SDS011;41970;48.774;9.280;2022-08-19T09:44:59;21.20;;;19.23;;
56102;SDS011;41970;48.774;9.280;2022-08-19T09:47:25;22.07;;;19.73;;
56102;SDS011;41970;48.774;9.280;2022-08-19T09:49:51;23.10;;;20.00;;
56102;SDS011;41970;48.774;9.280;2022-08-19T09:52:17;22.03;;;19.83;;
56102;SDS011;41970;48.774;9.280;2022-08-19T09:54:43;22.00;;;20.00;;
56102;SDS011;41970;48.774;9.280;2022-08-19T09:57:09;22.63;;;20.43;;
56102;SDS011;41970;48.774;9.280;2022-08-19T09:59:35;23.73;;;21.40;;
56102;SDS011;41970;48.774;9.280;2022-08-19T10:02:01;24.47;;;21.90;;
56102;SDS011;41970;48.774;9.280;2022-08-19T10:04:27;25.43;;;20.60;;
56102;SDS011;41970;48.774;9.280;2022-08-19T10:07:12;21.50;;;19.40;;
56102;SDS011;41970;48.774;9.280;2022-08-19T10:09:39;23.40;;;21.17;;
56102;SDS011;41970;48.774;9.280;2022-08-19T10:12:06;24.10;;;21.60;;
56102;SDS011;41970;48.774;9.280;2022-08-19T10:14:33;22.60;;;20.30;;
56102;SDS011;41970;48.774;9.280;2022-08-19T10:16:59;23.37;;;21.13;;
56102;SDS011;41970;48.774;9.280;2022-08-19T10:19:27;25.67;;;23.13;;
56102;SDS011;41970;48.774;9.280;2022-08-19T10:21:57;23.83;;;21.50;;
56102;SDS011;41970;48.774;9.280;2022-08-19T10:24:23;25.17;;;22.67;;
56102;SDS011;41970;48.774;9.280;2022-08-19T10:26:50;23.60;;;21.23;;
56102;SDS011;41970;48.774;9.280;2022-08-19T10:29:16;23.97;;;21.43;;
56102;SDS011;41970;48.774;9.280;2022-08-19T10:31:42;24.27;;;21.77;;
56102;SDS011;41970;48.774;9.280;2022-08-19T10:34:08;24.27;;;21.83;;
56102;SDS011;41970;48.774;9.280;2022-08-19T10:36:35;24.37;;;21.90;;
56102;SDS011;41970;48.774;9.280;2022-08-19T10:39:05;24.33;;;21.93;;
56102;SDS011;41970;48.774;9.280;2022-08-19T10:41:35;23.97;;;21.30;;
56102;SDS011;41970;48.774;9.280;2022-08-19T10:44:10;24.77;;;21.93;;
56102;SDS011;41970;48.774;9.280;2022-08-19T10:46:39;25.07;;;22.67;;
56102;SDS011;41970;48.774;9.280;2022-08-19T10:49:10;24.47;;;21.90;;
56102;SDS011;41970;48.774;9.280;2022-08-19T10:51:37;24.70;;;22.40;;
56102;SDS011;41970;48.774;9.280;2022-08-19T10:54:23;23.37;;;21.07;;
56102;SDS011;41970;48.774;9.280;2022-08-19T10:57:09;26.07;;;23.53;;
56102;SDS011;41970;48.774;9.280;2022-08-19T10:59:35;23.27;;;20.73;;
56102;SDS011;41970;48.774;9.280;2022-08-19T11:02:02;23.60;;;21.50;;
56102;SDS011;41970;48.774;9.280;2022-08-19T11:04:30;24.30;;;22.00;;
56102;SDS011;41970;48.774;9.280;2022-08-19T11:06:57;22.97;;;20.73;;
56102;SDS011;41970;48.774;9.280;2022-08-19T11:09:24;24.77;;;22.17;;
56102;SDS011;41970;48.774;9.280;2022-08-19T11:11:51;24.80;;;22.30;;
56102;SDS011;41970;48.774;9.280;2022-08-19T11:14:18;23.90;;;21.70;;
56102;SDS011;41970;48.774;9.280;2022-08-19T11:16:46;23.13;;;20.83;;
56102;SDS011;41970;48.774;9.280;2022-08-19T11:19:13;25.43;;;22.90;;
56102;SDS011;41970;48.774;9.280;2022-08-19T11:21:42;25.80;;;23.20;;
56102;SDS011;41970;48.774;9.280;2022-08-19T11:24:11;24.20;;;21.87;;
56102;SDS011;41970;48.774;9.280;2022-08-19T11:26:43;23.23;;;20.93;;
56102;SDS011;41970;48.774;9.280;2022-08-19T11:29:10;24.10;;;21.63;;
56102;SDS011;41970;48.774;9.280;2022-08-19T11:31:39;22.77;;;20.67;;
56102;SDS011;41970;48.774;9.280;2022-08-19T11:34:07;25.27;;;22.87;;
56102;SDS011;41970;48.774;9.280;2022-08-19T11:36:39;25.83;;;23.30;;
56102;SDS011;41970;48.774;9.280;2022-08-19T11:39:08;25.47;;;23.07;;
56102;SDS011;41970;48.774;9.280;2022-08-19T11:41:36;25.00;;;22.50;;
56102;SDS011;41970;48.774;9.280;2022-08-19T11:44:02;25.93;;;23.20;;
56102;SDS011;41970;48.774;9.280;2022-08-19T11:46:30;25.50;;;23.20;;
56102;SDS011;41970;48.774;9.280;2022-08-19T11:48:57;25.77;;;23.20;;
56102;SDS011;41970;48.774;9.280;2022-08-19T11:51:25;27.00;;;24.07;;
56102;SDS011;41970;48.774;9.280;2022-08-19T11:53:53;24.67;;;22.07;;
56102;SDS011;41970;48.774;9.280;2022-08-19T11:56:23;26.37;;;23.43;;
56102;SDS011;41970;48.774;9.280;2022-08-19T11:58:50;25.10;;;22.50;;
56102;SDS011;41970;48.774;9.280;2022-08-19T12:01:18;25.20;;;22.77;;
56102;SDS011;41970;48.774;9.280;2022-08-19T12:03:45;24.30;;;22.10;;
56102;SDS011;41970;48.774;9.280;2022-08-19T12:06:14;26.50;;;24.00;;
56102;SDS011;41970;48.774;9.280;2022-08-19T12:08:42;26.17;;;23.70;;
56102;SDS011;41970;48.774;9.280;2022-08-19T12:11:10;25.93;;;23.30;;
56102;SDS011;41970;48.774;9.280;2022-08-19T12:13:38;26.27;;;23.60;;
56102;SDS011;41970;48.774;9.280;2022-08-19T12:16:09;25.50;;;23.10;;
56102;SDS011;41970;48.774;9.280;2022-08-19T12:18:38;26.80;;;24.00;;
56102;SDS011;41970;48.774;9.280;2022-08-19T12:21:06;27.40;;;24.60;;
56102;SDS011;41970;48.774;9.280;2022-08-19T12:23:32;28.77;;;25.80;;
56102;SDS011;41970;48.774;9.280;2022-08-19T12:25:57;25.73;;;23.30;;
56102;SDS011;41970;48.774;9.280;2022-08-19T12:28:24;28.53;;;25.83;;
56102;SDS011;41970;48.774;9.280;2022-08-19T12:30:50;28.93;;;25.80;;
56102;SDS011;41970;48.774;9.280;2022-08-19T12:33:17;28.30;;;24.80;;
56102;SDS011;41970;48.774;9.280;2022-08-19T12:35:45;29.00;;;26.07;;
56102;SDS011;41970;48.774;9.280;2022-08-19T12:38:14;24.40;;;21.90;;
56102;SDS011;41970;48.774;9.280;2022-08-19T12:40:40;28.07;;;25.37;;
56102;SDS011;41970;48.774;9.280;2022-08-19T12:43:10;25.63;;;23.23;;
56102;SDS011;41970;48.774;9.280;2022-08-19T12:45:37;27.87;;;25.10;;
56102;SDS011;41970;48.774;9.280;2022-08-19T12:48:03;29.90;;;27.07;;
56102;SDS011;41970;48.774;9.280;2022-08-19T12:50:29;28.70;;;25.53;;
56102;SDS011;41970;48.774;9.280;2022-08-19T12:52:56;29.03;;;26.17;;
56102;SDS011;41970;48.774;9.280;2022-08-19T12:55:23;27.20;;;24.70;;
56102;SDS011;41970;48.774;9.280;2022-08-19T12:57:50;27.17;;;24.37;;
56102;SDS011;41970;48.774;9.280;2022-08-19T13:00:17;29.77;;;26.03;;
56102;SDS011;41970;48.774;9.280;2022-08-19T13:02:46;28.70;;;25.97;;
56102;SDS011;41970;48.774;9.280;2022-08-19T13:05:16;31.40;;;28.20;;
56102;SDS011;41970;48.774;9.280;2022-08-19T13:07:46;28.63;;;25.77;;
56102;SDS011;41970;48.774;9.280;2022-08-19T13:10:13;30.40;;;27.40;;
56102;SDS011;41970;48.774;9.280;2022-08-19T13:12:41;29.50;;;26.60;;
56102;SDS011;41970;48.774;9.280;2022-08-19T13:15:10;29.80;;;26.90;;
56102;SDS011;41970;48.774;9.280;2022-08-19T13:17:37;30.43;;;27.47;;
56102;SDS011;41970;48.774;9.280;2022-08-19T13:20:04;29.33;;;26.43;;
56102;SDS011;41970;48.774;9.280;2022-08-19T13:22:33;30.97;;;26.20;;
56102;SDS011;41970;48.774;9.280;2022-08-19T13:25:00;30.80;;;27.50;;
56102;SDS011;41970;48.774;9.280;2022-08-19T13:27:26;30.57;;;27.50;;
56102;SDS011;41970;48.774;9.280;2022-08-19T13:29:52;31.43;;;28.23;;
56102;SDS011;41970;48.774;9.280;2022-08-19T13:32:37;34.30;;;30.70;;
56102;SDS011;41970;48.774;9.280;2022-08-19T13:35:21;30.87;;;27.57;;
56102;SDS011;41970;48.774;9.280;2022-08-19T13:37:50;34.53;;;29.93;;
56102;SDS011;41970;48.774;9.280;2022-08-19T13:40:17;29.97;;;26.97;;
56102;SDS011;41970;48.774;9.280;2022-08-19T13:42:47;31.80;;;28.50;;
56102;SDS011;41970;48.774;9.280;2022-08-19T13:45:15;38.63;;;32.20;;
56102;SDS011;41970;48.774;9.280;2022-08-19T13:47:48;34.40;;;30.70;;
56102;SDS011;41970;48.774;9.280;2022-08-19T13:50:16;34.20;;;30.70;;
56102;SDS011;41970;48.774;9.280;2022-08-19T13:52:45;35.20;;;29.60;;
56102;SDS011;41970;48.774;9.280;2022-08-19T13:55:12;33.60;;;29.57;;
56102;SDS011;41970;48.774;9.280;2022-08-19T13:57:40;33.87;;;30.57;;
56102;SDS011;41970;48.774;9.280;2022-08-19T14:00:11;34.30;;;30.70;;
56102;SDS011;41970;48.774;9.280;2022-08-19T14:02:40;34.00;;;30.40;;
56102;SDS011;41970;48.774;9.280;2022-08-19T14:05:08;34.03;;;30.60;;
56102;SDS011;41970;48.774;9.280;2022-08-19T14:07:35;33.50;;;30.10;;
56102;SDS011;41970;48.774;9.280;2022-08-19T14:10:02;32.70;;;29.30;;
56102;SDS011;41970;48.774;9.280;2022-08-19T14:12:29;31.33;;;28.23;;
56102;SDS011;41970;48.774;9.280;2022-08-19T14:14:57;30.80;;;27.83;;
56102;SDS011;41970;48.774;9.280;2022-08-19T14:17:23;28.77;;;25.37;;
56102;SDS011;41970;48.774;9.280;2022-08-19T14:19:50;32.57;;;29.30;;
56102;SDS011;41970;48.774;9.280;2022-08-19T14:22:30;33.37;;;29.97;;
56102;SDS011;41970;48.774;9.280;2022-08-19T14:24:56;34.17;;;30.57;;
56102;SDS011;41970;48.774;9.280;2022-08-19T14:27:23;32.80;;;29.30;;
56102;SDS011;41970;48.774;9.280;2022-08-19T14:29:50;34.57;;;31.10;;
56102;SDS011;41970;48.774;9.280;2022-08-19T14:32:17;29.80;;;26.67;;
56102;SDS011;41970;48.774;9.280;2022-08-19T14:34:43;30.63;;;27.63;;
56102;SDS011;41970;48.774;9.280;2022-08-19T14:37:12;31.97;;;28.57;;
56102;SDS011;41970;48.774;9.280;2022-08-19T14:39:40;30.30;;;27.13;;
56102;SDS011;41970;48.774;9.280;2022-08-19T14:42:07;30.20;;;27.30;;
56102;SDS011;41970;48.774;9.280;2022-08-19T14:44:34;29.80;;;26.90;;